Time;durP1;ratioP1;P1;durP2;ratioP2;P2;SDS_P1;SDS_P2;PMS_P1;PMS_P2;Temp;Humidity;BMP_temperature;BMP_pressure;BME280_temperature;BME280_humidity;BME280_pressure;Samples;Min_cycle;Max_cycle;Signal;HPM_P1;HPM_P2
2021/07/07 00:07:34;;;;;;;11.00;7.68;;;15.80;99.90;;;;;;20914489;28;20064;-48
2021/07/07 00:17:37;;;;;;;12.18;7.88;;;15.70;99.90;;;;;;20913978;28;20474;-49
2021/07/07 00:27:39;;;;;;;11.05;7.90;;;15.60;99.90;;;;;;20913116;28;20044;-48
2021/07/07 00:37:41;;;;;;;9.50;7.10;;;15.50;99.90;;;;;;20912812;28;20082;-47
2021/07/07 00:47:48;;;;;;;9.25;7.53;;;15.40;99.90;;;;;;20910710;28;20052;-48
2021/07/07 00:57:52;;;;;;;9.15;6.70;;;15.30;99.90;;;;;;20910157;28;20052;-52
2021/07/07 01:07:55;;;;;;;8.20;5.90;;;15.20;99.90;;;;;;20909607;28;20090;-46
2021/07/07 01:17:57;;;;;;;8.10;6.05;;;15.10;99.90;;;;;;20909136;28;20033;-48
2021/07/07 01:28:03;;;;;;;10.85;5.72;;;15.00;99.90;;;;;;20901692;28;20048;-46
2021/07/07 01:38:06;;;;;;;10.00;6.63;;;14.90;99.90;;;;;;20907245;28;20060;-45
2021/07/07 01:48:08;;;;;;;9.88;7.40;;;14.80;99.90;;;;;;20906844;28;20041;-50
2021/07/07 01:58:10;;;;;;;17.13;10.52;;;14.80;99.90;;;;;;20906390;28;20095;-49
2021/07/07 02:08:12;;;;;;;10.18;7.55;;;14.70;99.90;;;;;;20905524;28;20386;-46
2021/07/07 02:18:14;;;;;;;19.48;7.60;;;14.70;99.90;;;;;;20905021;28;20028;-45
2021/07/07 02:28:17;;;;;;;10.32;7.45;;;14.80;99.90;;;;;;20904497;28;20060;-50
2021/07/07 02:38:21;;;;;;;12.02;6.82;;;14.90;99.90;;;;;;20904155;28;20032;-50
2021/07/07 02:48:23;;;;;;;8.98;6.47;;;14.90;99.90;;;;;;20903499;28;20490;-50
2021/07/07 02:58:25;;;;;;;7.20;5.22;;;14.90;99.90;;;;;;20902236;28;20059;-46
2021/07/07 03:08:30;;;;;;;10.48;6.63;;;14.80;99.90;;;;;;20908541;28;20415;-46
2021/07/07 03:18:31;;;;;;;11.63;6.53;;;14.70;99.90;;;;;;20918995;28;20533;-47
2021/07/07 03:28:34;;;;;;;8.55;6.20;;;;;;;;;;20917886;28;20090;-49
2021/07/07 03:38:35;;;;;;;7.68;5.72;;;14.30;99.90;;;;;;20917148;28;20041;-50
2021/07/07 03:48:37;;;;;;;6.82;5.22;;;14.20;99.90;;;;;;20916700;28;20056;-48
2021/07/07 03:58:39;;;;;;;10.02;5.32;;;14.10;99.90;;;;;;20915600;28;20033;-47
2021/07/07 04:08:41;;;;;;;7.53;5.28;;;14.10;99.90;;;;;;20914443;28;20071;-47
2021/07/07 04:18:42;;;;;;;8.20;4.72;;;14.20;99.90;;;;;;20913836;28;20378;-46
2021/07/07 04:28:44;;;;;;;7.22;4.43;;;14.20;99.90;;;;;;20913338;28;20052;-46
2021/07/07 04:38:46;;;;;;;6.60;4.22;;;14.30;99.90;;;;;;20912261;28;20482;-45
2021/07/07 04:48:48;;;;;;;5.57;3.72;;;14.50;99.90;;;;;;20911276;28;20087;-49
2021/07/07 04:58:51;;;;;;;3.20;2.88;;;14.50;99.90;;;;;;20910870;28;20037;-47
2021/07/07 05:08:54;;;;;;;7.55;3.83;;;14.60;99.90;;;;;;20909783;28;20068;-47
2021/07/07 05:18:55;;;;;;;5.30;4.28;;;14.80;99.90;;;;;;20909072;28;20059;-51
2021/07/07 05:28:58;;;;;;;6.20;4.75;;;14.80;99.90;;;;;;20907638;28;20037;-46
2021/07/07 05:38:59;;;;;;;6.93;4.93;;;15.10;99.90;;;;;;20907171;28;20094;-46
2021/07/07 05:49:01;;;;;;;5.72;4.70;;;15.50;99.90;;;;;;20907228;28;20075;-49
2021/07/07 05:59:03;;;;;;;5.38;4.03;;;15.80;99.90;;;;;;20906276;28;20029;-45
2021/07/07 06:09:05;;;;;;;3.67;2.83;;;16.30;99.90;;;;;;20905677;28;20102;-45
2021/07/07 06:19:07;;;;;;;3.15;2.47;;;18.30;99.90;;;;;;20904952;28;20487;-48
2021/07/07 06:29:11;;;;;;;2.75;1.80;;;23.10;99.90;;;;;;20904909;28;20375;-50
2021/07/07 06:39:13;;;;;;;4.55;1.95;;;25.70;99.00;;;;;;20903610;28;20044;-48
2021/07/07 06:49:15;;;;;;;4.18;1.90;;;27.80;92.10;;;;;;20919415;28;20033;-50
2021/07/07 06:59:17;;;;;;;2.85;1.90;;;30.20;84.50;;;;;;20921737;28;20098;-47
2021/07/07 07:09:19;;;;;;;3.03;2.03;;;30.90;82.30;;;;;;20921822;28;20036;-46
2021/07/07 07:19:21;;;;;;;3.03;2.45;;;32.40;76.50;;;;;;20918914;28;20029;-47
2021/07/07 07:29:23;;;;;;;2.67;2.47;;;33.50;68.50;;;;;;20918382;28;20324;-46
2021/07/07 07:39:27;;;;;;;3.60;2.03;;;33.90;67.80;;;;;;20917514;28;20036;-45
2021/07/07 07:49:29;;;;;;;2.35;2.10;;;33.70;65.60;;;;;;20917447;28;20291;-45
2021/07/07 07:59:31;;;;;;;4.37;3.07;;;33.10;65.80;;;;;;20914343;28;20032;-46
2021/07/07 08:09:33;;;;;;;2.50;2.30;;;32.70;66.20;;;;;;20915047;28;20037;-46
2021/07/07 08:19:36;;;;;;;2.70;2.30;;;;;;;;;;20914162;28;20802;-46
2021/07/07 08:29:39;;;;;;;3.00;2.50;;;31.50;67.60;;;;;;20913204;28;20071;-48
2021/07/07 08:39:42;;;;;;;3.03;2.77;;;31.00;72.30;;;;;;20912662;28;20482;-45
2021/07/07 08:49:47;;;;;;;3.65;2.60;;;31.60;71.30;;;;;;20911674;28;20100;-46
2021/07/07 08:59:49;;;;;;;3.45;2.50;;;31.40;72.50;;;;;;20911060;28;20033;-47
2021/07/07 09:09:52;;;;;;;2.90;2.58;;;30.70;72.20;;;;;;20907817;28;20053;-47
2021/07/07 09:19:57;;;;;;;2.13;1.77;;;30.70;74.70;;;;;;20909589;28;20025;-48
2021/07/07 09:30:08;;;;;;;3.35;2.20;;;31.00;71.90;;;;;;20909036;28;20040;-45
2021/07/07 09:40:12;;;;;;;2.22;2.03;;;31.60;69.60;;;;;;20907492;28;20048;-46
2021/07/07 09:50:16;;;;;;;3.03;2.72;;;31.80;70.80;;;;;;20906627;28;20037;-46
2021/07/07 10:00:21;;;;;;;4.40;1.83;;;31.90;69.20;;;;;;20906483;28;20041;-53
2021/07/07 10:10:24;;;;;;;;;;;30.90;71.20;;;;;;20906127;28;20386;-49
2021/07/07 10:20:26;;;;;;;6.32;2.35;;;31.10;68.80;;;;;;20904894;28;20314;-48
2021/07/07 10:30:51;;;;;;;4.00;1.95;;;31.00;69.80;;;;;;20904366;28;20333;-53
2021/07/07 10:40:54;;;;;;;3.73;2.43;;;31.40;67.30;;;;;;20903865;28;20037;-49
2021/07/07 10:51:00;;;;;;;2.85;2.13;;;30.90;70.50;;;;;;20903048;28;20037;-48
2021/07/07 11:01:31;;;;;;;4.15;2.92;;;31.20;70.30;;;;;;20903819;28;20032;-51
2021/07/07 11:11:35;;;;;;;2.28;1.60;;;30.60;71.40;;;;;;20902555;28;20037;-50
2021/07/07 11:21:38;;;;;;;2.63;1.30;;;30.40;69.90;;;;;;20903135;28;20041;-49
2021/07/07 11:31:40;;;;;;;2.38;1.50;;;30.50;64.70;;;;;;20975594;28;20041;-47
2021/07/07 11:41:42;;;;;;;1.63;1.30;;;30.20;67.50;;;;;;21000065;28;20428;-48
2021/07/07 11:52:03;;;;;;;2.60;1.15;;;30.10;67.40;;;;;;20998986;28;20557;-47
2021/07/07 12:02:05;;;;;;;3.97;1.20;;;28.50;68.50;;;;;;20998300;28;20157;-48
2021/07/07 12:12:08;;;;;;;2.88;1.42;;;29.20;68.00;;;;;;20950900;28;20044;-48
2021/07/07 12:22:15;;;;;;;1.10;0.98;;;28.80;69.50;;;;;;20913788;28;20029;-50
2021/07/07 12:32:22;;;;;;;1.30;1.10;;;28.50;68.90;;;;;;20912927;28;20037;-49
2021/07/07 12:42:27;;;;;;;;;;;29.10;67.30;;;;;;20911781;28;20033;-51
2021/07/07 12:52:35;;;;;;;1.70;1.30;;;29.70;68.90;;;;;;20911269;28;19924;-47
2021/07/07 13:03:19;;;;;;;4.85;1.23;;;30.40;67.00;;;;;;20910683;28;20029;-52
2021/07/07 13:13:29;;;;;;;3.78;1.20;;;30.30;64.00;;;;;;20860296;28;20478;-49
2021/07/07 13:23:32;;;;;;;4.47;1.20;;;30.50;67.50;;;;;;20908878;28;20538;-49
2021/07/07 13:33:34;;;;;;;2.45;1.30;;;30.80;65.60;;;;;;20907914;28;20086;-48
2021/07/07 13:43:37;;;;;;;1.50;1.10;;;30.40;63.80;;;;;;20908304;28;20033;-51
2021/07/07 13:53:39;;;;;;;5.15;1.38;;;30.30;63.10;;;;;;20906281;28;20177;-50
2021/07/07 14:03:41;;;;;;;3.70;1.55;;;30.60;64.50;;;;;;20905882;28;20037;-50
2021/07/07 14:13:43;;;;;;;2.17;1.55;;;30.90;64.60;;;;;;20903584;28;20036;-50
2021/07/07 14:23:45;;;;;;;7.40;1.40;;;30.50;63.60;;;;;;20904406;28;20386;-48
2021/07/07 14:33:48;;;;;;;4.95;1.45;;;29.80;67.00;;;;;;20904052;28;20074;-50
2021/07/07 14:43:50;;;;;;;1.77;1.33;;;30.10;64.40;;;;;;20903958;28;20025;-48
2021/07/07 14:53:53;;;;;;;2.78;1.10;;;28.90;67.30;;;;;;20903440;28;20045;-51
2021/07/07 15:03:55;;;;;;;1.95;1.30;;;28.80;68.70;;;;;;20906277;28;20029;-48
2021/07/07 15:13:57;;;;;;;1.58;1.40;;;28.70;68.60;;;;;;20919240;28;20041;-48
2021/07/07 15:24:01;;;;;;;1.50;1.35;;;27.30;71.70;;;;;;20919106;28;20453;-50
2021/07/07 15:34:03;;;;;;;2.92;1.42;;;26.60;75.40;;;;;;20915459;28;20516;-48
2021/07/07 15:44:05;;;;;;;5.68;1.52;;;26.30;73.90;;;;;;20918052;28;20067;-50
2021/07/07 15:54:08;;;;;;;2.35;1.65;;;27.10;74.00;;;;;;20915964;28;20045;-55
2021/07/07 16:04:10;;;;;;;2.75;1.55;;;27.70;71.90;;;;;;20915286;28;20063;-50
2021/07/07 16:14:12;;;;;;;1.77;1.50;;;29.70;68.90;;;;;;20913704;28;20063;-48
2021/07/07 16:24:15;;;;;;;3.42;1.50;;;28.60;69.80;;;;;;20913745;28;20500;-53
2021/07/07 16:34:16;;;;;;;2.40;1.45;;;27.00;74.70;;;;;;20912368;28;20033;-52
2021/07/07 16:44:18;;;;;;;5.13;1.65;;;26.10;73.10;;;;;;20912151;28;20423;-51
2021/07/07 16:54:21;;;;;;;2.38;1.80;;;25.80;75.30;;;;;;20911209;28;20052;-50
2021/07/07 17:04:23;;;;;;;4.22;2.45;;;24.30;79.10;;;;;;20910208;28;20025;-49
2021/07/07 17:14:25;;;;;;;2.20;2.00;;;23.20;83.90;;;;;;20910678;28;20036;-50
2021/07/07 17:24:27;;;;;;;2.17;1.85;;;22.50;86.70;;;;;;20908845;28;20029;-50
2021/07/07 17:34:29;;;;;;;4.45;2.15;;;21.70;90.90;;;;;;20907612;28;20032;-49
2021/07/07 17:44:31;;;;;;;6.53;2.55;;;21.30;91.30;;;;;;20907025;28;20094;-49
2021/07/07 17:54:36;;;;;;;2.95;2.08;;;21.30;92.20;;;;;;20906236;28;20449;-48
2021/07/07 18:04:39;;;;;;;3.17;2.05;;;21.40;92.80;;;;;;20906058;28;20033;-48
2021/07/07 18:14:41;;;;;;;3.90;2.42;;;21.10;95.20;;;;;;20904732;28;20040;-52
2021/07/07 18:24:52;;;;;;;3.65;2.33;;;20.70;96.60;;;;;;20904444;28;20032;-50
2021/07/07 18:34:53;;;;;;;2.25;2.03;;;20.20;98.70;;;;;;20903946;28;20032;-48
2021/07/07 18:44:55;;;;;;;2.65;1.98;;;19.90;99.70;;;;;;20903377;28;20025;-47
2021/07/07 18:54:58;;;;;;;3.65;3.00;;;19.60;99.90;;;;;;20902973;28;20437;-49
2021/07/07 19:05:00;;;;;;;6.35;3.38;;;19.60;99.90;;;;;;20902617;28;20475;-47
2021/07/07 19:15:05;;;;;;;6.72;3.50;;;19.70;99.90;;;;;;20902198;28;20029;-51
2021/07/07 19:25:09;;;;;;;5.40;3.03;;;19.80;99.90;;;;;;20902699;28;20433;-49
2021/07/07 19:35:12;;;;;;;5.47;2.95;;;19.80;99.90;;;;;;20901739;28;20029;-50
2021/07/07 19:45:15;;;;;;;3.45;1.58;;;20.10;99.90;;;;;;20901552;28;20037;-48
2021/07/07 19:55:18;;;;;;;5.65;2.38;;;20.10;98.80;;;;;;20913075;28;20049;-49
2021/07/07 20:05:20;;;;;;;3.90;2.70;;;19.80;99.90;;;;;;20915238;28;20044;-51
2021/07/07 20:15:23;;;;;;;2.85;2.55;;;20.00;99.90;;;;;;20914336;28;20074;-49
2021/07/07 20:25:27;;;;;;;3.25;2.55;;;20.20;99.90;;;;;;20913535;28;20037;-47
2021/07/07 20:35:29;;;;;;;3.85;2.35;;;20.00;99.90;;;;;;20913976;28;20037;-47
2021/07/07 20:45:32;;;;;;;9.43;2.60;;;19.70;99.90;;;;;;20912890;28;20037;-51
2021/07/07 20:55:34;;;;;;;4.15;2.83;;;19.20;99.90;;;;;;20911897;28;20045;-49
2021/07/07 21:05:40;;;;;;;4.43;3.28;;;18.80;99.90;;;;;;20909846;28;20394;-53
2021/07/07 21:15:42;;;;;;;2.75;2.45;;;18.50;99.90;;;;;;20909535;28;20028;-47
2021/07/07 21:25:44;;;;;;;3.60;2.90;;;18.40;99.90;;;;;;20908862;28;20090;-50
2021/07/07 21:35:46;;;;;;;5.25;3.45;;;18.30;99.90;;;;;;20908498;28;20071;-47
2021/07/07 21:45:49;;;;;;;8.95;2.85;;;18.00;99.90;;;;;;20907381;28;20037;-52
2021/07/07 21:55:51;;;;;;;2.53;2.10;;;18.10;99.90;;;;;;20906364;28;20110;-46
2021/07/07 22:05:53;;;;;;;3.22;2.00;;;18.10;99.90;;;;;;20906869;28;20086;-47
2021/07/07 22:15:56;;;;;;;6.13;2.30;;;17.80;99.90;;;;;;20904637;28;20040;-48
2021/07/07 22:25:58;;;;;;;4.15;2.38;;;17.90;99.90;;;;;;20904811;28;20394;-46
2021/07/07 22:36:00;;;;;;;3.03;2.38;;;17.90;99.90;;;;;;20904468;28;20029;-46
2021/07/07 22:46:03;;;;;;;3.47;1.70;;;18.00;99.90;;;;;;20903851;28;20040;-51
2021/07/07 22:56:09;;;;;;;3.85;2.20;;;18.10;99.90;;;;;;20903719;28;20032;-48
2021/07/07 23:06:11;;;;;;;3.00;1.90;;;18.10;99.90;;;;;;20903070;28;20037;-47
2021/07/07 23:16:13;;;;;;;2.92;1.85;;;18.10;99.90;;;;;;20903066;28;20040;-50
2021/07/07 23:26:15;;;;;;;2.70;1.80;;;18.20;99.90;;;;;;20907785;28;20041;-47
2021/07/07 23:36:17;;;;;;;3.97;1.98;;;18.00;99.90;;;;;;20917519;28;20032;-48
2021/07/07 23:46:19;;;;;;;4.80;2.08;;;17.70;99.90;;;;;;20915442;28;20098;-47
2021/07/07 23:56:21;;;;;;;4.32;2.08;;;17.30;99.90;;;;;;20916126;28;20037;-49
